createdAt,value
2023-02-24T00:02:06.079Z,10.18
2023-02-24T00:04:39.623Z,10.18
2023-02-24T00:07:11.022Z,10.68
2023-02-24T00:09:39.188Z,10.13
2023-02-24T00:12:13.168Z,11.52
2023-02-24T00:14:43.662Z,10.60
2023-02-24T00:17:16.793Z,9.93
2023-02-24T00:19:48.548Z,10.00
2023-02-24T00:22:15.232Z,9.90
2023-02-24T00:24:42.203Z,8.48
2023-02-24T00:27:11.546Z,9.98
2023-02-24T00:29:45.802Z,9.00
2023-02-24T00:32:13.969Z,7.85
2023-02-24T00:34:40.917Z,10.02
2023-02-24T00:37:09.433Z,14.98
2023-02-24T00:39:37.227Z,15.20
2023-02-24T00:42:06.422Z,9.95
2023-02-24T00:44:38.092Z,10.40
2023-02-24T00:47:07.173Z,10.18
2023-02-24T00:49:35.986Z,8.80
2023-02-24T00:52:04.798Z,10.23
2023-02-24T00:54:31.462Z,13.15
2023-02-24T00:56:58.061Z,10.52
2023-02-24T00:59:26.927Z,9.50
2023-02-24T01:01:54.960Z,8.60
2023-02-24T01:04:22.490Z,7.53
2023-02-24T01:06:55.135Z,9.07
2023-02-24T01:09:21.758Z,8.27
2023-02-24T01:12:08.285Z,6.75
2023-02-24T01:14:38.268Z,6.68
2023-02-24T01:17:14.602Z,7.30
2023-02-24T01:19:41.376Z,6.97
2023-02-24T01:22:10.158Z,9.70
2023-02-24T01:24:41.436Z,7.05
2023-02-24T01:27:08.684Z,7.60
2023-02-24T01:29:40.924Z,7.03
2023-02-24T01:32:11.037Z,5.80
2023-02-24T01:34:39.056Z,7.20
2023-02-24T01:37:05.729Z,9.43
2023-02-24T01:39:32.386Z,10.60
2023-02-24T01:42:01.449Z,9.73
2023-02-24T01:44:32.779Z,9.05
2023-02-24T01:47:04.003Z,8.00
2023-02-24T01:49:36.819Z,9.25
2023-02-24T01:52:15.461Z,9.00
2023-02-24T01:55:09.378Z,9.43
2023-02-24T01:57:39.667Z,11.32
2023-02-24T02:00:12.016Z,8.13
2023-02-24T02:02:42.595Z,9.00
2023-02-24T02:05:10.522Z,9.40
2023-02-24T02:07:40.459Z,10.18
2023-02-24T02:10:09.945Z,9.85
2023-02-24T02:12:44.596Z,6.75
2023-02-24T02:15:17.817Z,8.23
2023-02-24T02:17:46.520Z,9.63
2023-02-24T02:20:22.450Z,10.75
2023-02-24T02:23:15.907Z,12.02
2023-02-24T02:26:18.985Z,11.88
2023-02-24T02:29:23.154Z,11.55
2023-02-24T02:32:03.829Z,11.02
2023-02-24T02:35:08.486Z,9.43
2023-02-24T02:38:02.440Z,9.40
2023-02-24T02:40:28.999Z,8.80
2023-02-24T02:43:21.898Z,7.20
2023-02-24T02:45:59.816Z,10.40
2023-02-24T02:48:53.590Z,10.77
2023-02-24T02:51:29.951Z,7.88
2023-02-24T02:54:12.273Z,9.07
2023-02-24T02:56:50.801Z,9.73
2023-02-24T02:59:23.361Z,10.13
2023-02-24T03:01:58.275Z,11.20
2023-02-24T03:04:27.081Z,12.00
2023-02-24T03:07:01.413Z,10.40
2023-02-24T03:09:32.688Z,9.85
2023-02-24T03:12:08.049Z,7.32
2023-02-24T03:14:39.963Z,10.55
2023-02-24T03:17:16.376Z,10.35
2023-02-24T03:19:47.107Z,11.73
2023-02-24T03:22:13.736Z,8.23
2023-02-24T03:24:42.504Z,8.80
2023-02-24T03:27:13.802Z,9.88
2023-02-24T03:29:58.534Z,9.10
2023-02-24T03:32:44.106Z,9.13
2023-02-24T03:35:17.707Z,10.13
2023-02-24T03:37:47.215Z,23.50
2023-02-24T03:40:17.068Z,10.63
2023-02-24T03:42:47.901Z,10.63
2023-02-24T03:45:16.390Z,10.23
2023-02-24T03:47:45.623Z,10.18
2023-02-24T03:50:18.303Z,11.38
2023-02-24T03:53:06.646Z,10.95
2023-02-24T03:55:36.151Z,10.68
2023-02-24T03:58:33.869Z,9.70
2023-02-24T04:01:06.390Z,9.18
2023-02-24T04:03:33.075Z,7.70
2023-02-24T04:06:18.141Z,10.10
2023-02-24T04:08:53.780Z,7.63
2023-02-24T04:11:30.055Z,9.77
2023-02-24T04:14:10.316Z,10.05
2023-02-24T04:16:44.479Z,9.38
2023-02-24T04:19:16.949Z,8.18
2023-02-24T04:21:45.754Z,9.10
2023-02-24T04:24:15.790Z,9.98
2023-02-24T04:26:46.843Z,9.52
2023-02-24T04:29:20.617Z,10.82
2023-02-24T04:31:51.901Z,9.88
2023-02-24T04:34:20.334Z,10.63
2023-02-24T04:36:49.798Z,10.60
2023-02-24T04:39:19.019Z,11.43
2023-02-24T04:41:50.673Z,12.43
2023-02-24T04:44:22.183Z,12.30
2023-02-24T04:46:50.380Z,10.95
2023-02-24T04:49:19.977Z,10.20
2023-02-24T04:51:47.509Z,8.27
2023-02-24T04:54:21.199Z,11.25
2023-02-24T04:56:51.082Z,9.45
2023-02-24T04:59:19.324Z,9.95
2023-02-24T05:01:46.834Z,7.65
2023-02-24T05:04:14.496Z,8.93
2023-02-24T05:06:45.135Z,8.90
2023-02-24T05:09:19.788Z,9.98
2023-02-24T05:11:49.173Z,9.35
2023-02-24T05:14:21.035Z,7.47
2023-02-24T05:16:51.452Z,7.35
2023-02-24T05:19:39.750Z,8.85
2023-02-24T05:22:11.655Z,6.90
2023-02-24T05:24:40.504Z,10.95
2023-02-24T05:27:07.405Z,8.95
2023-02-24T05:29:37.626Z,8.88
2023-02-24T05:32:05.644Z,9.40
2023-02-24T05:34:33.884Z,9.02
2023-02-24T05:37:04.531Z,9.80
2023-02-24T05:39:31.180Z,9.65
2023-02-24T05:41:57.960Z,10.32
2023-02-24T05:44:26.773Z,10.65
2023-02-24T05:46:59.074Z,10.55
2023-02-24T05:49:29.625Z,9.52
2023-02-24T05:52:00.213Z,33.00
2023-02-24T05:54:45.101Z,11.13
2023-02-24T05:59:44.609Z,8.43
2023-02-24T06:02:15.008Z,9.80
2023-02-24T06:04:51.211Z,7.50
2023-02-24T06:07:22.152Z,9.10
2023-02-24T06:09:50.744Z,14.23
2023-02-24T06:12:18.281Z,14.75
2023-02-24T06:14:47.771Z,16.85
2023-02-24T06:17:19.383Z,14.10
2023-02-24T06:19:49.428Z,12.43
2023-02-24T06:22:19.365Z,9.02
2023-02-24T06:24:49.268Z,8.13
2023-02-24T06:27:19.835Z,9.82
2023-02-24T06:29:52.354Z,9.10
2023-02-24T06:32:21.316Z,13.10
2023-02-24T06:34:48.068Z,9.38
2023-02-24T06:37:18.596Z,9.65
2023-02-24T06:39:45.622Z,9.52
2023-02-24T06:42:14.850Z,18.13
2023-02-24T06:44:41.947Z,9.13
2023-02-24T06:47:13.278Z,7.95
2023-02-24T06:49:42.985Z,10.38
2023-02-24T06:52:11.194Z,9.98
2023-02-24T06:54:39.775Z,14.95
2023-02-24T06:57:09.942Z,11.25
2023-02-24T06:59:37.374Z,8.93
2023-02-24T07:02:03.964Z,10.45
2023-02-24T07:04:31.014Z,13.55
2023-02-24T07:07:06.016Z,11.18
2023-02-24T07:09:32.697Z,12.48
2023-02-24T07:12:02.747Z,12.43
2023-02-24T07:14:31.435Z,11.80
2023-02-24T07:16:59.617Z,11.65
2023-02-24T07:19:29.248Z,12.38
2023-02-24T07:22:01.155Z,17.98
2023-02-24T07:24:33.480Z,13.90
2023-02-24T07:27:07.780Z,14.18
2023-02-24T07:29:38.029Z,10.68
2023-02-24T07:32:08.733Z,13.68
2023-02-24T07:34:40.250Z,11.15
2023-02-24T07:37:08.695Z,11.52
2023-02-24T07:39:37.158Z,12.82
2023-02-24T07:42:04.996Z,16.77
2023-02-24T07:44:33.241Z,20.23
2023-02-24T07:47:00.327Z,16.92
2023-02-24T07:49:30.306Z,25.00
2023-02-24T07:51:58.218Z,15.73
2023-02-24T07:54:28.821Z,12.27
2023-02-24T07:57:00.934Z,12.65
2023-02-24T07:59:33.186Z,12.27
2023-02-24T08:02:00.647Z,13.07
2023-02-24T08:04:30.162Z,11.75
2023-02-24T08:06:59.183Z,17.27
2023-02-24T08:09:47.184Z,11.05
2023-02-24T08:12:18.244Z,12.85
2023-02-24T08:14:51.140Z,10.30
2023-02-24T08:17:20.192Z,11.48
2023-02-24T08:20:01.082Z,10.50
2023-02-24T08:22:35.453Z,11.32
2023-02-24T08:25:06.004Z,12.70
2023-02-24T08:27:39.181Z,12.82
2023-02-24T08:30:08.000Z,11.90
2023-02-24T08:32:39.845Z,16.65
2023-02-24T08:35:36.044Z,12.75
2023-02-24T08:38:14.514Z,12.90
2023-02-24T08:40:51.687Z,14.55
2023-02-24T08:43:30.203Z,19.83
2023-02-24T08:46:28.661Z,12.55
2023-02-24T08:49:01.267Z,13.43
2023-02-24T08:51:34.939Z,11.88
2023-02-24T08:54:11.542Z,14.60
2023-02-24T08:56:43.517Z,13.68
2023-02-24T08:59:29.443Z,11.40
2023-02-24T09:02:18.079Z,15.32
2023-02-24T09:04:57.309Z,13.07
2023-02-24T09:07:29.544Z,12.23
2023-02-24T09:09:59.839Z,12.15
2023-02-24T09:15:03.501Z,8.95
2023-02-24T09:17:47.976Z,13.73
2023-02-24T09:20:39.604Z,10.90
2023-02-24T09:25:47.851Z,13.80
2023-02-24T09:28:20.318Z,9.85
2023-02-24T09:30:55.986Z,13.00
2023-02-24T09:33:23.073Z,11.50
2023-02-24T09:44:39.202Z,8.55
2023-02-24T09:58:16.492Z,10.32
2023-02-24T17:13:18.300Z,19.70
2023-02-24T17:15:46.120Z,23.63
2023-02-24T17:18:12.881Z,24.10
2023-02-24T17:20:40.866Z,22.90
2023-02-24T17:23:11.470Z,20.40
2023-02-24T17:25:41.299Z,19.65
2023-02-24T17:28:11.202Z,20.30
2023-02-24T17:30:42.176Z,19.20
2023-02-24T17:33:21.282Z,20.13
2023-02-24T17:35:50.849Z,18.52
2023-02-24T17:38:23.896Z,22.80
2023-02-24T17:40:50.885Z,22.55
2023-02-24T17:43:30.802Z,27.00
2023-02-24T17:45:57.549Z,24.33
2023-02-24T17:48:26.231Z,22.40
2023-02-24T17:50:55.555Z,28.90
2023-02-24T17:53:22.306Z,27.88
2023-02-24T17:56:02.914Z,27.70
2023-02-24T17:58:30.974Z,27.30
2023-02-24T18:01:02.513Z,30.17
2023-02-24T18:03:33.419Z,34.47
2023-02-24T18:06:18.203Z,31.20
2023-02-24T18:11:19.828Z,28.27
2023-02-24T18:13:52.631Z,28.38
2023-02-24T18:16:19.514Z,26.55
2023-02-24T18:18:46.282Z,25.58
2023-02-24T18:21:14.844Z,27.85
2023-02-24T18:23:43.290Z,31.52
2023-02-24T18:26:15.557Z,29.77
2023-02-24T18:28:44.753Z,28.30
2023-02-24T18:31:21.356Z,36.38
2023-02-24T18:33:53.330Z,36.35
2023-02-24T18:36:20.324Z,37.50
2023-02-24T18:38:53.795Z,43.53
2023-02-24T18:41:27.125Z,35.72
2023-02-24T18:43:57.051Z,32.67
2023-02-24T18:46:29.300Z,25.98
2023-02-24T18:48:58.368Z,25.40
2023-02-24T18:51:29.278Z,32.72
2023-02-24T18:54:00.607Z,35.28
2023-02-24T18:56:32.922Z,32.80
2023-02-24T18:59:03.955Z,34.35
2023-02-24T19:01:39.336Z,32.08
2023-02-24T19:04:07.960Z,27.42
2023-02-24T19:06:37.042Z,62.92
2023-02-24T19:09:11.043Z,49.88
2023-02-24T19:11:42.932Z,46.97
2023-02-24T19:14:15.853Z,60.83
2023-02-24T19:16:42.868Z,34.58
2023-02-24T19:19:17.572Z,38.13
2023-02-24T19:21:48.541Z,31.75
2023-02-24T19:24:18.562Z,33.47
2023-02-24T19:26:47.800Z,31.17
2023-02-24T19:29:14.544Z,33.35
2023-02-24T19:31:44.425Z,41.17
2023-02-24T19:34:15.840Z,43.97
2023-02-24T19:36:47.775Z,36.88
2023-02-24T19:39:18.070Z,35.20
2023-02-24T19:41:55.500Z,31.80
2023-02-24T19:44:22.125Z,29.52
2023-02-24T19:46:51.532Z,32.55
2023-02-24T19:49:23.086Z,31.75
2023-02-24T19:51:57.733Z,34.28
2023-02-24T19:54:25.624Z,32.75
2023-02-24T19:56:52.603Z,34.50
2023-02-24T19:59:19.200Z,37.25
2023-02-24T20:01:46.670Z,33.22
2023-02-24T20:04:15.954Z,34.60
2023-02-24T20:06:45.572Z,36.03
2023-02-24T20:09:18.010Z,35.35
2023-02-24T20:11:46.037Z,35.57
2023-02-24T20:14:13.906Z,46.08
2023-02-24T20:16:41.614Z,38.05
2023-02-24T20:19:09.519Z,35.72
2023-02-24T20:21:40.697Z,35.78
2023-02-24T20:24:13.243Z,35.70
2023-02-24T20:26:46.490Z,31.15
2023-02-24T20:29:17.119Z,38.95
2023-02-24T20:31:44.116Z,41.90
2023-02-24T20:34:14.544Z,37.33
2023-02-24T20:36:46.506Z,36.75
2023-02-24T20:39:15.677Z,37.55
2023-02-24T20:41:42.615Z,37.15
2023-02-24T20:44:11.941Z,36.80
2023-02-24T20:46:38.911Z,35.47
2023-02-24T20:49:08.917Z,37.85
2023-02-24T20:51:40.011Z,34.75
2023-02-24T20:54:09.108Z,32.85
2023-02-24T20:56:38.166Z,33.38
2023-02-24T20:59:15.284Z,33.08
2023-02-24T21:01:50.992Z,36.05
2023-02-24T21:04:20.633Z,37.17
2023-02-24T21:06:49.196Z,38.88
2023-02-24T21:09:16.498Z,36.85
2023-02-24T21:11:46.223Z,33.55
2023-02-24T21:14:17.296Z,36.22
2023-02-24T21:16:46.612Z,33.42
2023-02-24T21:19:13.410Z,34.95
2023-02-24T21:21:40.050Z,36.17
2023-02-24T21:24:10.056Z,38.75
2023-02-24T21:26:36.760Z,36.90
2023-02-24T21:29:06.715Z,38.05
2023-02-24T21:31:35.339Z,38.53
2023-02-24T21:34:12.287Z,38.75
2023-02-24T21:36:41.911Z,42.45
2023-02-24T21:39:09.132Z,42.65
2023-02-24T21:41:36.100Z,43.28
2023-02-24T21:44:05.105Z,39.72
2023-02-24T21:46:41.594Z,42.60
2023-02-24T21:49:15.216Z,41.20
2023-02-24T21:51:49.024Z,40.28
2023-02-24T21:54:15.674Z,38.95
2023-02-24T21:56:42.347Z,36.42
2023-02-24T21:59:13.836Z,36.88
2023-02-24T22:01:48.419Z,37.00
2023-02-24T22:04:18.923Z,33.42
2023-02-24T22:06:45.950Z,34.42
2023-02-24T22:09:24.335Z,33.03
2023-02-24T22:11:53.839Z,35.80
2023-02-24T22:14:22.881Z,31.45
2023-02-24T22:16:54.631Z,29.60
2023-02-24T22:19:21.287Z,27.63
2023-02-24T22:21:53.301Z,30.58
2023-02-24T22:24:25.040Z,30.00
2023-02-24T22:26:51.898Z,31.58
2023-02-24T22:29:18.617Z,34.92
2023-02-24T22:31:49.518Z,37.85
2023-02-24T22:34:16.839Z,37.20
2023-02-24T22:36:48.741Z,38.03
2023-02-24T22:39:19.371Z,34.90
2023-02-24T22:41:47.629Z,36.42
2023-02-24T22:44:20.900Z,34.42
2023-02-24T22:46:50.474Z,33.83
2023-02-24T22:49:19.719Z,30.33
2023-02-24T22:51:48.451Z,27.73
2023-02-24T22:54:15.451Z,30.75
2023-02-24T22:56:43.754Z,29.17
2023-02-24T22:59:10.948Z,31.70
2023-02-24T23:01:38.302Z,28.90
2023-02-24T23:04:07.973Z,30.75
2023-02-24T23:06:36.101Z,33.78
2023-02-24T23:09:04.620Z,32.08
2023-02-24T23:11:41.014Z,33.30
2023-02-24T23:14:13.911Z,31.52
2023-02-24T23:16:47.228Z,30.77
2023-02-24T23:19:22.644Z,30.85
2023-02-24T23:21:55.576Z,28.13
2023-02-24T23:24:22.555Z,26.38
2023-02-24T23:26:54.089Z,26.13
2023-02-24T23:29:29.118Z,27.67
2023-02-24T23:31:55.901Z,28.08
2023-02-24T23:34:22.630Z,29.05
2023-02-24T23:36:52.063Z,27.15
2023-02-24T23:39:25.069Z,29.20
2023-02-24T23:41:56.479Z,29.27
2023-02-24T23:44:28.953Z,26.83
2023-02-24T23:46:58.309Z,29.95
2023-02-24T23:49:31.124Z,25.35
2023-02-24T23:52:04.366Z,26.20
2023-02-24T23:54:31.023Z,28.55
2023-02-24T23:56:59.835Z,27.70
2023-02-24T23:59:29.366Z,27.52
